Time;durP1;ratioP1;P1;durP2;ratioP2;P2;SDS_P1;SDS_P2;PMS_P1;PMS_P2;Temp;Humidity;BMP_temperature;BMP_pressure;BME280_temperature;BME280_humidity;BME280_pressure;Samples;Min_cycle;Max_cycle;Signal;HPM_P1;HPM_P2
2022/11/25 00:01:33;;;;;;;21.48;8.75;;;3.30;99.90;;;1.79;100.00;100480.50;4820960;29;20046;-76
2022/11/25 00:03:59;;;;;;;21.10;8.80;;;3.40;99.90;;;1.77;100.00;100486.03;4821273;29;20038;-75
2022/11/25 00:06:33;;;;;;;23.95;8.80;;;3.40;99.90;;;1.85;100.00;100480.66;4822152;29;20054;-75
2022/11/25 00:09:03;;;;;;;18.65;8.35;;;3.50;99.90;;;1.97;100.00;100480.38;4821509;29;20090;-75
2022/11/25 00:11:29;;;;;;;20.00;8.30;;;3.50;99.90;;;1.86;100.00;100482.38;4821152;29;20030;-75
2022/11/25 00:13:56;;;;;;;25.85;9.23;;;3.50;99.90;;;1.76;100.00;100478.97;4821226;29;20464;-77
2022/11/25 00:16:25;;;;;;;20.52;8.07;;;3.50;99.90;;;1.76;100.00;100491.59;4821236;29;20114;-76
2022/11/25 00:18:54;;;;;;;23.33;8.63;;;3.40;99.90;;;1.67;100.00;100488.84;4821135;29;20044;-77
2022/11/25 00:21:24;;;;;;;18.13;7.47;;;3.40;99.90;;;1.67;100.00;100477.25;4821051;29;20038;-76
2022/11/25 00:23:57;;;;;;;18.55;7.65;;;3.30;99.90;;;1.75;100.00;100489.91;4820925;29;20046;-77
2022/11/25 00:26:25;;;;;;;20.42;7.45;;;3.30;99.90;;;1.77;100.00;100483.34;4821009;29;20042;-76
2022/11/25 00:28:53;;;;;;;17.83;7.28;;;3.40;99.90;;;1.67;100.00;100472.72;4821020;29;20034;-76
2022/11/25 00:31:25;;;;;;;15.43;7.43;;;3.40;99.90;;;1.52;100.00;100475.16;4821154;29;20066;-77
2022/11/25 00:33:52;;;;;;;18.38;7.03;;;3.20;99.90;;;1.38;100.00;100473.09;4820206;29;20402;-77
2022/11/25 00:36:26;;;;;;;21.15;6.95;;;3.10;99.90;;;1.27;100.00;100469.69;4820566;29;20057;-76
2022/11/25 00:38:58;;;;;;;20.83;6.60;;;3.00;99.90;;;1.55;100.00;100460.56;4820938;29;20108;-76
2022/11/25 00:46:58;;;;;;;20.92;6.28;;;3.40;99.90;;;1.73;100.00;100455.09;4820949;29;20054;-76
2022/11/25 00:49:26;;;;;;;13.60;5.03;;;3.40;99.90;;;1.75;100.00;100453.06;4820844;29;20764;-76
2022/11/25 00:51:52;;;;;;;18.92;5.72;;;3.40;99.90;;;1.73;100.00;100447.00;4820923;29;20149;-76
2022/11/25 00:54:18;;;;;;;20.23;5.60;;;3.40;99.90;;;1.84;100.00;100452.06;4819634;29;20038;-76
2022/11/25 00:56:44;;;;;;;22.70;6.30;;;3.40;99.90;;;1.79;100.00;100465.19;4821025;29;20451;-76
2022/11/25 00:59:10;;;;;;;23.98;6.20;;;3.40;99.90;;;2.00;100.00;100462.06;4819446;29;20152;-76
2022/11/25 01:01:37;;;;;;;17.95;6.03;;;3.60;99.90;;;2.08;100.00;100463.91;4818980;29;20187;-76
2022/11/25 01:04:04;;;;;;;18.52;5.95;;;3.70;99.90;;;1.95;100.00;100459.00;4819255;29;20038;-76
2022/11/25 01:06:32;;;;;;;14.32;5.32;;;3.60;99.90;;;1.84;100.00;100460.16;4820493;29;20121;-76
2022/11/25 01:08:58;;;;;;;20.02;5.82;;;3.50;99.90;;;1.85;100.00;100467.22;4821620;29;20046;-76
2022/11/25 01:11:25;;;;;;;17.40;6.18;;;3.50;99.90;;;1.87;100.00;100467.06;4830173;29;20141;-76
2022/11/25 01:13:53;;;;;;;22.85;6.60;;;3.50;99.90;;;1.84;100.00;100470.09;4819009;29;20053;-76
2022/11/25 01:16:21;;;;;;;19.35;6.43;;;3.50;99.90;;;1.82;100.00;100474.78;4820248;29;20026;-75
2022/11/25 01:18:49;;;;;;;19.38;6.63;;;3.40;99.90;;;1.75;100.00;100463.00;4820347;29;20233;-76
2022/11/25 01:21:19;;;;;;;17.58;6.47;;;3.40;99.90;;;1.79;100.00;100467.88;4820276;29;20064;-76
2022/11/25 01:23:47;;;;;;;14.02;5.78;;;3.40;99.90;;;1.77;100.00;100461.00;4820238;29;20045;-76
2022/11/25 01:26:16;;;;;;;;;;;3.40;99.90;;;1.93;100.00;100460.19;4834515;29;20034;-76
2022/11/25 01:28:44;;;;;;;18.27;5.72;;;3.50;99.90;;;2.01;100.00;100470.97;4833720;29;19997;-76
2022/11/25 01:31:15;;;;;;;14.82;5.78;;;3.60;99.90;;;1.99;100.00;100467.59;4819921;29;20504;-76
2022/11/25 01:33:42;;;;;;;17.75;5.60;;;3.60;99.90;;;1.96;100.00;100470.63;4819739;29;20038;-76
2022/11/25 01:36:17;;;;;;;21.92;5.72;;;3.60;99.90;;;2.09;100.00;100476.34;4819771;29;20132;-76
2022/11/25 01:38:44;;;;;;;14.65;5.03;;;3.60;99.90;;;2.14;100.00;100471.34;4833669;29;20107;-76
2022/11/25 01:41:13;;;;;;;14.20;5.35;;;3.70;99.90;;;2.02;100.00;100483.41;4820222;29;20485;-76
2022/11/25 01:43:40;;;;;;;22.92;5.45;;;3.70;99.90;;;1.77;100.00;100463.69;4833745;29;20061;-76
2022/11/25 01:46:26;;;;;;;19.60;5.47;;;3.50;99.90;;;1.53;100.00;100444.59;4819207;29;20034;-75
2022/11/25 01:49:09;;;;;;;18.08;4.95;;;3.40;99.90;;;1.52;100.00;100468.97;4819726;29;20302;-76
2022/11/25 01:52:20;;;;;;;17.75;4.45;;;3.20;99.90;;;1.69;100.00;100468.00;4820059;29;20030;-76
2022/11/25 01:55:18;;;;;;;16.30;4.65;;;3.30;99.90;;;1.79;100.00;100469.75;4822860;29;20133;-75
2022/11/25 01:57:59;;;;;;;15.23;4.90;;;3.40;99.90;;;1.81;100.00;100476.63;4831891;29;20168;-76
2022/11/25 02:00:25;;;;;;;12.27;4.60;;;3.40;99.90;;;1.65;100.00;100445.13;4819670;29;20458;-76
2022/11/25 02:02:54;;;;;;;12.80;4.53;;;3.40;99.90;;;1.75;100.00;100484.53;4819656;29;20034;-76
2022/11/25 02:05:52;;;;;;;14.82;4.70;;;3.40;99.90;;;1.69;100.00;100475.25;4833532;29;20050;-76
2022/11/25 02:08:22;;;;;;;13.63;4.68;;;3.40;99.90;;;1.74;100.00;100480.97;4833242;29;20035;-77
2022/11/25 02:10:54;;;;;;;16.40;4.20;;;3.40;99.90;;;1.82;100.00;100475.63;4818073;29;20399;-76
2022/11/25 02:13:22;;;;;;;17.63;4.10;;;3.40;99.90;;;1.85;100.00;100469.91;4817923;29;20057;-77
2022/11/25 02:15:48;;;;;;;17.27;4.40;;;3.50;99.90;;;2.01;100.00;100474.50;4819682;29;20506;-76
2022/11/25 02:18:14;;;;;;;18.83;4.68;;;3.60;99.90;;;2.14;100.00;100475.88;4819404;29;20661;-76
2022/11/25 02:20:41;;;;;;;14.55;4.70;;;3.70;99.90;;;2.11;100.00;100468.94;4830118;29;20033;-76
2022/11/25 02:23:44;;;;;;;15.30;4.35;;;3.70;99.90;;;2.13;100.00;100477.72;4832869;29;20037;-76
2022/11/25 02:26:10;;;;;;;19.40;3.92;;;3.70;99.90;;;2.08;100.00;100473.84;4819446;29;20034;-76
2022/11/25 02:28:37;;;;;;;16.40;4.10;;;3.70;99.90;;;2.09;100.00;100476.34;4839158;29;20186;-76
2022/11/25 02:31:07;;;;;;;14.80;3.90;;;3.70;99.90;;;2.10;100.00;100463.75;4818088;29;20034;-76
2022/11/25 02:33:34;;;;;;;13.95;3.20;;;3.70;99.90;;;2.16;100.00;100476.53;4817675;29;20045;-77
2022/11/25 02:36:15;;;;;;;13.40;3.80;;;3.70;99.90;;;2.21;100.00;100476.88;4819162;29;20034;-77
2022/11/25 02:38:49;;;;;;;12.65;4.28;;;3.80;99.90;;;2.22;100.00;100478.56;4819968;29;20110;-76
2022/11/25 02:41:16;;;;;;;12.02;3.63;;;3.80;99.90;;;2.14;100.00;100476.72;4830637;29;20030;-76
2022/11/25 02:43:46;;;;;;;17.98;3.60;;;3.80;99.90;;;2.13;100.00;100468.81;4819228;29;20418;-76
2022/11/25 02:46:18;;;;;;;12.70;3.70;;;3.70;99.90;;;2.10;100.00;100469.97;4833308;29;20045;-76
2022/11/25 02:48:46;;;;;;;10.73;3.85;;;3.70;99.90;;;2.10;100.00;100477.22;4832942;29;20447;-76
2022/11/25 02:51:16;;;;;;;14.35;3.53;;;3.70;99.90;;;2.06;100.00;100474.00;4833003;29;20034;-76
2022/11/25 02:53:43;;;;;;;14.63;3.20;;;3.70;99.90;;;2.11;100.00;100477.03;4819029;29;20117;-76
2022/11/25 02:56:11;;;;;;;13.70;3.67;;;3.70;99.90;;;2.21;100.00;100473.34;4833009;29;20095;-76
2022/11/25 02:58:38;;;;;;;16.35;3.35;;;3.80;99.90;;;2.26;100.00;100473.69;4819251;29;20132;-76
2022/11/25 03:01:04;;;;;;;15.13;3.17;;;3.90;99.90;;;2.24;100.00;100462.25;4817455;29;20069;-76
2022/11/25 03:03:30;;;;;;;16.27;3.42;;;3.90;99.90;;;2.29;100.00;100474.22;4817407;29;20154;-76
2022/11/25 03:05:56;;;;;;;11.30;2.90;;;3.90;99.90;;;2.35;100.00;100478.06;4817602;29;20042;-76
2022/11/25 03:08:23;;;;;;;19.25;4.07;;;3.90;99.90;;;2.28;100.00;100477.91;4820121;29;20034;-76
2022/11/25 03:10:49;;;;;;;12.18;3.30;;;3.90;99.90;;;2.30;100.00;100483.13;4822590;29;20525;-76
2022/11/25 03:13:15;;;;;;;15.98;3.47;;;3.90;99.90;;;2.32;100.00;100485.66;4822251;29;20034;-76
2022/11/25 03:15:42;;;;;;;15.60;3.25;;;3.90;99.90;;;2.27;100.00;100472.69;4836054;29;20034;-75
2022/11/25 03:18:08;;;;;;;16.75;3.15;;;3.90;99.90;;;2.25;100.00;100472.84;4822359;29;20112;-76
2022/11/25 03:20:35;;;;;;;16.02;3.42;;;3.90;99.90;;;2.38;100.00;100477.72;4836885;29;20102;-75
2022/11/25 03:23:03;;;;;;;13.85;3.00;;;4.00;99.90;;;2.32;100.00;100475.72;4822191;29;20569;-76
2022/11/25 03:25:30;;;;;;;10.98;3.20;;;4.00;99.90;;;2.26;100.00;100476.38;4836538;29;20061;-76
2022/11/25 03:27:56;;;;;;;12.68;3.30;;;3.90;99.90;;;2.37;100.00;100478.75;4825154;29;20038;-75
2022/11/25 03:30:27;;;;;;;12.90;3.42;;;4.00;99.90;;;2.51;100.00;100474.53;4835709;29;20530;-76
2022/11/25 03:32:56;;;;;;;11.73;2.83;;;4.00;99.90;;;2.68;100.00;100477.25;4822641;29;20045;-76
2022/11/25 03:35:24;;;;;;;10.30;2.95;;;4.20;99.90;;;2.73;100.00;100472.19;4836390;29;20038;-75
2022/11/25 03:37:50;;;;;;;11.18;2.97;;;4.30;99.90;;;2.76;100.00;100474.53;4820165;29;20039;-75
2022/11/25 03:40:16;;;;;;;17.48;3.28;;;4.40;99.90;;;2.75;100.00;100469.34;4826595;29;20124;-76
2022/11/25 03:42:44;;;;;;;13.90;2.72;;;4.40;99.90;;;2.70;100.00;100473.38;4833802;29;20488;-75
2022/11/25 03:45:12;;;;;;;16.13;3.28;;;4.30;99.90;;;2.70;100.00;100477.91;4821575;29;20042;-75
2022/11/25 03:47:41;;;;;;;13.23;3.05;;;4.30;99.90;;;2.80;100.00;100475.91;4835614;29;20570;-76
2022/11/25 03:50:07;;;;;;;;;;;4.40;99.90;;;2.90;100.00;100478.41;4820652;29;20038;-75
2022/11/25 03:52:33;;;;;;;12.10;3.58;;;4.50;99.90;;;2.90;100.00;100474.88;4821367;29;19972;-76
2022/11/25 03:55:02;;;;;;;12.05;2.85;;;4.50;99.90;;;2.81;100.00;100474.88;4833017;29;20076;-75
2022/11/25 03:57:32;;;;;;;11.95;2.80;;;4.50;99.90;;;2.75;100.00;100470.16;4829918;29;20050;-75
2022/11/25 03:59:58;;;;;;;9.33;2.47;;;4.40;99.90;;;2.66;100.00;100471.19;4830429;29;20061;-75
2022/11/25 04:02:23;;;;;;;13.23;2.70;;;4.30;99.90;;;2.59;100.00;100476.41;4820817;29;20621;-75
2022/11/25 04:04:49;;;;;;;12.10;3.38;;;4.30;99.90;;;2.53;100.00;100463.63;4833142;29;20039;-76
2022/11/25 04:07:17;;;;;;;8.57;3.10;;;4.20;99.90;;;2.51;100.00;100466.47;4832481;29;20455;-76
2022/11/25 04:09:42;;;;;;;7.85;2.50;;;4.20;99.90;;;2.36;100.00;100460.91;4820986;29;20034;-75
2022/11/25 04:15:04;;;;;;;13.18;3.17;;;4.00;99.90;;;2.49;100.00;100464.97;4842016;29;20603;-75
2022/11/25 04:17:29;;;;;;;10.23;3.28;;;4.10;99.90;;;2.56;100.00;100474.91;4833414;29;20041;-75
2022/11/25 04:19:55;;;;;;;11.75;3.10;;;4.20;99.90;;;2.55;100.00;100457.06;4852149;29;20029;-76
2022/11/25 04:22:22;;;;;;;13.07;2.80;;;4.20;99.90;;;2.57;100.00;100459.56;4834228;29;20124;-75
2022/11/25 04:24:49;;;;;;;12.77;3.20;;;4.20;99.90;;;2.67;100.00;100472.88;4834496;29;20557;-74
2022/11/25 04:27:20;;;;;;;12.02;3.00;;;4.30;99.90;;;2.73;100.00;100472.19;4819662;29;20034;-75
2022/11/25 04:29:46;;;;;;;17.10;3.50;;;4.40;99.90;;;2.70;100.00;100476.06;4834841;29;20054;-75
2022/11/25 04:32:14;;;;;;;15.38;3.50;;;4.30;99.90;;;2.62;100.00;100473.38;4833020;29;20035;-75
2022/11/25 04:34:40;;;;;;;12.15;3.63;;;4.30;99.90;;;2.44;100.00;100463.63;4819869;29;20497;-75
2022/11/25 04:37:06;;;;;;;10.90;2.65;;;4.20;99.90;;;2.48;100.00;100474.06;4834895;29;20053;-75
2022/11/25 04:39:32;;;;;;;14.00;2.92;;;4.20;99.90;;;2.53;100.00;100477.94;4824833;29;20030;-76
2022/11/25 04:44:50;;;;;;;15.02;4.35;;;4.10;99.90;;;2.53;100.00;100485.16;4834791;29;20042;-75
2022/11/25 04:47:17;;;;;;;11.98;2.75;;;4.10;99.90;;;2.52;100.00;100480.78;4834655;29;20405;-76
2022/11/25 04:49:42;;;;;;;14.82;3.35;;;4.10;99.90;;;2.56;100.00;100471.34;4834570;29;20030;-75
2022/11/25 04:52:08;;;;;;;16.63;4.00;;;4.20;99.90;;;2.71;100.00;100475.06;4834882;29;20653;-75
2022/11/25 04:54:34;;;;;;;13.23;3.30;;;4.30;99.90;;;2.76;100.00;100473.72;4834560;29;20027;-75
2022/11/25 04:57:00;;;;;;;14.23;3.10;;;4.40;99.90;;;2.67;100.00;100471.03;4820883;29;20057;-75
2022/11/25 04:59:40;;;;;;;13.52;3.42;;;4.30;99.90;;;2.67;100.00;100478.25;4819245;29;20454;-75
2022/11/25 05:02:13;;;;;;;12.05;3.80;;;4.30;99.90;;;2.82;100.00;100479.28;4834200;29;20030;-75
2022/11/25 05:04:43;;;;;;;11.60;3.88;;;4.40;99.90;;;2.85;100.00;100480.75;4819154;29;20042;-75
2022/11/25 05:07:12;;;;;;;16.50;3.30;;;4.40;99.90;;;2.73;100.00;100477.56;4818992;29;20398;-75
2022/11/25 05:09:38;;;;;;;11.83;3.00;;;4.40;99.90;;;2.67;100.00;100476.41;4821550;29;20432;-76
2022/11/25 05:12:19;;;;;;;11.80;3.00;;;4.30;99.90;;;2.65;100.00;100480.28;4836283;29;20362;-76
2022/11/25 05:14:45;;;;;;;15.02;3.47;;;4.30;99.90;;;2.60;100.00;100475.38;4830330;29;20038;-75
2022/11/25 05:17:19;;;;;;;15.75;3.50;;;4.30;99.90;;;2.56;100.00;100474.03;4834403;29;20133;-75
2022/11/25 05:19:45;;;;;;;10.95;2.90;;;4.20;99.90;;;2.50;100.00;100474.72;4820005;29;20056;-75
2022/11/25 05:22:14;;;;;;;;;;;4.20;99.90;;;2.41;100.00;100476.56;4819036;29;20175;-76
2022/11/25 05:24:42;;;;;;;13.43;3.20;;;4.00;99.90;;;2.32;100.00;100475.72;4827342;29;20004;-77
2022/11/25 05:27:08;;;;;;;16.05;3.30;;;4.00;99.90;;;2.36;100.00;100477.06;4820186;29;20026;-75
2022/11/25 05:29:35;;;;;;;12.52;3.63;;;4.00;99.90;;;2.37;100.00;100475.22;4818510;29;20497;-75
2022/11/25 05:32:01;;;;;;;15.98;3.13;;;4.00;99.90;;;2.31;100.00;100468.66;4818431;29;20034;-75
2022/11/25 05:34:27;;;;;;;11.73;3.22;;;4.00;99.90;;;2.27;100.00;100459.22;4818013;29;20030;-75
2022/11/25 05:36:53;;;;;;;11.80;3.35;;;3.90;99.90;;;2.26;100.00;100462.94;4819346;29;20470;-76
2022/11/25 05:39:19;;;;;;;16.92;3.88;;;3.90;99.90;;;2.42;100.00;100462.94;4830803;29;20120;-74
2022/11/25 05:42:13;;;;;;;18.08;3.63;;;3.90;99.90;;;2.54;100.00;100468.00;4827637;29;20084;-75
2022/11/25 05:44:40;;;;;;;11.52;3.20;;;4.10;99.90;;;2.52;100.00;100457.41;4819414;29;20031;-75
2022/11/25 05:47:06;;;;;;;14.88;3.45;;;4.10;99.90;;;2.44;100.00;100466.31;4833624;29;20040;-75
2022/11/25 05:49:32;;;;;;;12.60;3.22;;;4.10;99.90;;;2.42;100.00;100464.78;4819444;29;20034;-75
2022/11/25 05:52:00;;;;;;;16.27;3.17;;;4.10;99.90;;;2.48;100.00;100465.97;4818166;29;20242;-75
2022/11/25 05:54:28;;;;;;;19.17;3.80;;;4.10;99.90;;;2.45;100.00;100464.44;4834096;29;20034;-76
2022/11/25 05:56:54;;;;;;;14.27;3.83;;;4.10;99.90;;;2.41;100.00;100457.72;4830677;29;20509;-76
2022/11/25 05:59:40;;;;;;;13.85;3.50;;;4.10;99.90;;;2.44;100.00;100447.47;4833375;29;20027;-75
2022/11/25 06:02:32;;;;;;;9.90;3.10;;;4.10;99.90;;;2.49;100.00;100455.00;4830434;29;20040;-75
2022/11/25 06:04:57;;;;;;;15.40;3.90;;;4.10;99.90;;;2.49;100.00;100454.19;4832351;29;20038;-74
2022/11/25 06:07:23;;;;;;;15.70;3.47;;;4.20;99.90;;;2.54;100.00;100458.06;4829881;29;20030;-75
2022/11/25 06:09:49;;;;;;;14.38;3.70;;;4.20;99.90;;;2.61;100.00;100462.78;4817742;29;20571;-74
2022/11/25 06:12:16;;;;;;;14.70;3.33;;;4.20;99.90;;;2.62;100.00;100467.16;4817973;29;20035;-75
2022/11/25 06:14:47;;;;;;;13.57;3.72;;;4.20;99.90;;;2.61;100.00;100471.69;4817988;29;20061;-75
2022/11/25 06:17:13;;;;;;;13.57;3.60;;;4.30;99.90;;;2.66;100.00;100472.03;4829900;29;20486;-75
2022/11/25 06:20:08;;;;;;;13.27;3.50;;;4.30;99.90;;;2.72;100.00;100471.34;4818463;29;20087;-75
2022/11/25 06:22:35;;;;;;;15.23;3.58;;;4.40;99.90;;;2.81;100.00;100464.13;4832433;29;20398;-77
2022/11/25 06:25:01;;;;;;;11.63;3.33;;;4.40;99.90;;;2.91;100.00;100469.28;4817719;29;20452;-77
2022/11/25 06:27:28;;;;;;;13.52;3.92;;;4.50;99.90;;;3.01;100.00;100480.75;4832890;29;20045;-78
2022/11/25 06:29:53;;;;;;;20.67;4.38;;;4.60;99.90;;;3.05;100.00;100475.88;4832953;29;20351;-75
2022/11/25 06:32:19;;;;;;;8.65;2.97;;;4.70;99.90;;;2.99;100.00;100476.53;4832689;29;20041;-76
2022/11/25 06:35:11;;;;;;;12.82;3.88;;;4.60;99.90;;;2.92;100.00;100481.78;4820358;29;20101;-75
2022/11/25 06:37:45;;;;;;;16.52;3.25;;;4.60;99.90;;;2.92;100.00;100476.41;4832689;29;20054;-76
2022/11/25 06:40:12;;;;;;;17.13;3.72;;;4.60;99.90;;;2.97;100.00;100468.63;4819336;29;20525;-77
2022/11/25 06:42:38;;;;;;;12.40;3.47;;;4.60;99.90;;;3.17;100.00;100476.31;4822700;29;20121;-76
2022/11/25 06:45:05;;;;;;;15.57;3.55;;;4.70;99.90;;;3.35;100.00;100478.81;4822577;29;20030;-75
2022/11/25 06:47:31;;;;;;;16.98;3.20;;;4.90;99.90;;;3.44;100.00;100479.63;4822733;29;20065;-75
2022/11/25 06:49:57;;;;;;;16.27;3.53;;;5.00;99.90;;;3.51;100.00;100494.09;4823481;29;20107;-77
2022/11/25 06:52:23;;;;;;;14.63;3.45;;;5.10;99.90;;;3.49;100.00;100509.63;4822892;29;20207;-76
2022/11/25 06:54:50;;;;;;;11.85;3.58;;;5.10;99.90;;;3.49;100.00;100501.53;4823281;29;20038;-76
2022/11/25 06:57:18;;;;;;;9.55;3.15;;;5.10;99.90;;;3.48;100.00;100507.09;4823068;29;20031;-76
2022/11/25 06:59:44;;;;;;;11.52;3.38;;;5.10;99.90;;;3.49;100.00;100508.78;4823524;29;20045;-76
2022/11/25 07:02:13;;;;;;;12.73;2.88;;;5.10;99.90;;;3.57;100.00;100506.91;4822739;29;20479;-75
2022/11/25 07:04:39;;;;;;;11.45;3.50;;;5.20;99.90;;;3.67;100.00;100509.38;4822496;29;20115;-76
2022/11/25 07:07:06;;;;;;;11.05;2.58;;;5.30;99.90;;;3.77;100.00;100514.59;4823155;29;20680;-75
2022/11/25 07:09:32;;;;;;;13.90;2.65;;;5.40;99.90;;;3.94;100.00;100519.88;4822930;29;20034;-76
2022/11/25 07:11:58;;;;;;;13.35;3.20;;;5.50;99.90;;;4.01;100.00;100526.28;4823466;29;20039;-78
2022/11/25 07:14:24;;;;;;;11.60;2.80;;;5.60;99.90;;;3.95;100.00;100513.47;4824418;29;20466;-75
2022/11/25 07:16:49;;;;;;;13.07;3.15;;;5.60;99.90;;;3.88;100.00;100518.75;4822615;29;20038;-74
2022/11/25 07:19:17;;;;;;;13.07;3.60;;;5.60;99.90;;;3.82;100.00;100504.09;4822606;29;20042;-74
2022/11/25 07:21:44;;;;;;;11.75;3.42;;;5.50;99.90;;;3.92;100.00;100514.69;4822575;29;20125;-76
2022/11/25 07:24:16;;;;;;;12.82;3.00;;;5.50;99.90;;;4.01;100.00;100516.31;4822758;29;20474;-76
2022/11/25 07:26:43;;;;;;;13.05;2.80;;;5.60;99.90;;;4.10;100.00;100514.41;4820209;29;20042;-76
2022/11/25 07:29:14;;;;;;;14.20;2.88;;;5.70;99.90;;;4.10;100.00;100522.50;4821885;29;20038;-76
2022/11/25 07:31:43;;;;;;;13.98;2.97;;;5.70;99.90;;;4.22;100.00;100527.50;4820608;29;21983;-77
2022/11/25 07:34:12;;;;;;;9.20;3.13;;;5.80;99.90;;;4.31;100.00;100529.97;4822023;29;20045;-76
2022/11/25 07:36:39;;;;;;;17.45;3.50;;;5.90;99.90;;;4.39;100.00;100529.09;4820602;29;20054;-77
2022/11/25 07:39:20;;;;;;;15.03;3.47;;;6.00;99.90;;;4.47;100.00;100539.81;4822261;29;20129;-76
2022/11/25 07:41:51;;;;;;;14.45;3.35;;;6.00;99.90;;;4.54;100.00;100541.84;4821487;29;20038;-77
2022/11/25 07:44:17;;;;;;;15.60;3.13;;;6.10;99.90;;;4.57;100.00;100544.19;4822055;29;20065;-76
2022/11/25 07:46:59;;;;;;;11.98;3.45;;;6.20;99.90;;;4.54;100.00;100541.84;4820613;29;20165;-77
2022/11/25 07:49:24;;;;;;;12.07;3.00;;;6.20;99.90;;;4.60;100.00;100546.50;4822011;29;20038;-77
2022/11/25 07:51:52;;;;;;;9.60;2.92;;;6.20;99.90;;;4.67;100.00;100552.88;4820166;29;20456;-76
2022/11/25 07:54:19;;;;;;;;;;;6.20;99.90;;;4.72;100.00;100560.44;4821574;29;20041;-77
2022/11/25 07:56:47;;;;;;;8.57;3.20;;;6.30;99.90;;;4.68;100.00;100564.53;4836160;29;20840;-75
2022/11/25 07:59:17;;;;;;;14.75;3.00;;;6.30;99.90;;;4.65;100.00;100564.91;4830110;29;20046;-76
2022/11/25 08:01:43;;;;;;;16.05;3.67;;;6.30;99.90;;;4.63;100.00;100561.50;4821659;29;20049;-76
2022/11/25 08:04:13;;;;;;;16.27;3.38;;;6.30;99.90;;;4.70;100.00;100557.91;4836092;29;20057;-78
2022/11/25 08:06:43;;;;;;;14.63;3.75;;;6.30;99.90;;;4.82;100.00;100560.22;4821466;29;20079;-77
2022/11/25 08:09:12;;;;;;;12.40;3.17;;;6.40;99.90;;;4.78;100.00;100558.91;4822821;29;20267;-76
2022/11/25 08:11:41;;;;;;;13.32;3.60;;;6.40;99.90;;;4.94;100.00;100566.03;4828397;29;20082;-76
2022/11/25 08:14:09;;;;;;;12.02;3.50;;;6.50;99.90;;;4.88;100.00;100563.00;4823269;29;20050;-76
2022/11/25 08:16:35;;;;;;;12.70;3.60;;;6.50;99.90;;;4.97;100.00;100569.19;4820531;29;20022;-76
2022/11/25 08:19:05;;;;;;;11.38;3.92;;;6.60;99.90;;;4.99;100.00;100571.72;4821005;29;20165;-78
2022/11/25 08:21:31;;;;;;;11.18;3.20;;;6.60;99.90;;;5.00;100.00;100571.53;4824026;29;20070;-78
2022/11/25 08:23:57;;;;;;;9.80;3.20;;;6.60;99.90;;;5.02;100.00;100574.88;4821337;29;20400;-78
2022/11/25 08:26:31;;;;;;;13.45;3.15;;;6.60;99.90;;;5.08;100.00;100569.81;4835051;29;20253;-76
2022/11/25 08:28:58;;;;;;;13.80;3.05;;;6.70;99.90;;;5.11;100.00;100577.53;4821345;29;20043;-74
2022/11/25 08:31:28;;;;;;;11.02;3.25;;;6.70;99.90;;;5.15;100.00;100579.69;4817653;29;20042;-76
2022/11/25 08:33:55;;;;;;;13.80;3.20;;;6.80;99.90;;;5.17;100.00;100576.81;4817281;29;20453;-75
2022/11/25 08:36:21;;;;;;;14.05;2.88;;;6.80;99.90;;;5.14;100.00;100575.28;4819041;29;20046;-75
2022/11/25 08:38:51;;;;;;;14.18;3.10;;;6.80;99.90;;;5.18;100.00;100578.47;4833094;29;20549;-74
2022/11/25 08:41:22;;;;;;;13.50;3.20;;;6.80;99.90;;;5.22;100.00;100585.22;4819741;29;20030;-74
2022/11/25 08:43:49;;;;;;;14.52;3.35;;;6.80;99.90;;;5.24;100.00;100585.88;4819432;29;20137;-75
2022/11/25 08:46:20;;;;;;;14.38;3.13;;;6.80;99.90;;;5.24;100.00;100580.44;4826011;29;20030;-75
2022/11/25 08:48:46;;;;;;;14.23;3.10;;;6.90;99.90;;;5.25;100.00;100579.44;4819966;29;20057;-75
2022/11/25 08:51:17;;;;;;;13.70;3.05;;;6.90;99.90;;;5.29;100.00;100588.03;4819441;29;20118;-75
2022/11/25 08:53:45;;;;;;;18.00;3.60;;;6.90;99.90;;;5.29;100.00;100580.72;4820929;29;20565;-74
2022/11/25 08:56:12;;;;;;;10.20;3.13;;;6.90;99.90;;;5.35;100.00;100584.59;4822917;29;20097;-75
2022/11/25 08:58:38;;;;;;;11.98;3.13;;;6.90;99.90;;;5.42;100.00;100585.50;4819835;29;20512;-74
2022/11/25 09:01:06;;;;;;;16.63;3.60;;;7.00;99.90;;;5.43;100.00;100578.25;4819537;29;20219;-74
2022/11/25 09:03:39;;;;;;;12.00;2.95;;;7.00;99.90;;;5.50;100.00;100581.91;4819780;29;20895;-75
2022/11/25 09:06:07;;;;;;;10.25;2.92;;;7.10;99.90;;;5.54;100.00;100587.78;4819172;29;20448;-76
2022/11/25 09:08:33;;;;;;;;;;;7.10;99.90;;;5.52;100.00;100595.25;4819978;29;20042;-75
2022/11/25 09:10:59;;;;;;;12.98;3.22;;;7.10;99.90;;;5.52;100.00;100597.97;4819609;29;20352;-75
2022/11/25 09:13:25;;;;;;;15.90;3.30;;;7.10;99.90;;;5.51;100.00;100605.22;4820098;29;20034;-74
2022/11/25 09:15:51;;;;;;;15.85;3.20;;;7.10;99.90;;;5.53;100.00;100605.06;4821030;29;20129;-76
2022/11/25 09:18:19;;;;;;;17.10;3.10;;;7.10;99.90;;;5.55;100.00;100605.72;4819693;29;20038;-74
2022/11/25 09:20:46;;;;;;;14.57;3.90;;;7.10;99.90;;;5.56;100.00;100610.91;4819923;29;20056;-75
2022/11/25 09:23:12;;;;;;;11.53;3.10;;;7.20;99.90;;;5.56;100.00;100612.78;4819707;29;20133;-75
2022/11/25 09:25:38;;;;;;;13.10;3.20;;;7.20;99.90;;;5.51;100.00;100610.63;4819521;29;20330;-75
2022/11/25 09:28:04;;;;;;;12.13;3.58;;;7.20;99.90;;;5.59;100.00;100626.81;4819435;29;20064;-75
2022/11/25 09:30:31;;;;;;;12.85;3.28;;;7.20;99.90;;;5.58;100.00;100625.13;4819377;29;20034;-75
2022/11/25 09:32:57;;;;;;;13.00;3.70;;;7.20;99.90;;;5.59;100.00;100626.81;4819240;29;20069;-75
2022/11/25 09:35:24;;;;;;;15.27;3.70;;;7.20;99.90;;;5.61;100.00;100626.63;4819455;29;20027;-75
2022/11/25 09:37:51;;;;;;;16.75;3.33;;;7.20;99.90;;;5.57;100.00;100625.31;4820102;29;20514;-76
2022/11/25 09:40:44;;;;;;;15.07;3.03;;;7.20;99.90;;;5.55;100.00;100622.78;4819155;29;20371;-75
2022/11/25 09:47:07;;;;;;;14.00;3.40;;;7.10;99.90;;;5.60;100.00;100623.09;4818806;29;20200;-75
2022/11/25 09:50:40;;;;;;;15.90;3.50;;;7.20;99.90;;;5.62;100.00;100633.72;4818895;29;20073;-74
2022/11/25 09:53:33;;;;;;;;;;;7.20;99.90;;;5.61;100.00;100634.72;4821737;29;20517;-75
2022/11/25 09:56:11;;;;;;;11.30;2.95;;;7.20;99.90;;;5.63;100.00;100638.09;4818818;29;20353;-75
2022/11/25 09:58:52;;;;;;;13.20;3.00;;;7.20;99.90;;;5.59;100.00;100640.34;4818689;29;20108;-75
2022/11/25 10:01:24;;;;;;;15.30;3.30;;;7.20;99.90;;;5.57;100.00;100642.41;4818744;29;20502;-74
2022/11/25 10:04:04;;;;;;;14.77;3.42;;;7.10;99.90;;;5.53;100.00;100640.22;4818939;29;20677;-74
2022/11/25 10:06:39;;;;;;;13.77;3.53;;;7.10;99.90;;;5.51;100.00;100645.00;4819322;29;20507;-74
2022/11/25 10:09:16;;;;;;;17.30;3.38;;;7.10;99.90;;;5.49;100.00;100647.03;4819535;29;20034;-75
2022/11/25 10:11:52;;;;;;;16.25;3.28;;;7.10;99.90;;;5.47;100.00;100648.06;4818905;29;20138;-75
2022/11/25 10:14:48;;;;;;;15.13;3.08;;;7.10;99.90;;;5.47;100.00;100649.91;4824794;29;20042;-74
2022/11/25 10:17:50;;;;;;;14.98;3.55;;;7.10;99.90;;;5.46;100.00;100640.13;4818502;29;20038;-74
2022/11/25 10:20:33;;;;;;;13.35;3.45;;;7.10;99.90;;;5.40;100.00;100632.75;4818538;29;20034;-74
2022/11/25 10:23:22;;;;;;;11.20;3.90;;;7.10;99.90;;;5.46;100.00;100640.13;4822018;29;20042;-74
2022/11/25 10:25:55;;;;;;;11.00;2.95;;;7.10;99.90;;;5.45;100.00;100635.72;4818068;29;20471;-75
2022/11/25 10:28:28;;;;;;;10.82;3.28;;;7.10;99.90;;;5.44;100.00;100644.88;4818869;29;20264;-74
2022/11/25 10:31:09;;;;;;;12.82;3.35;;;7.10;99.90;;;5.42;100.00;100633.41;4818411;29;20090;-74
2022/11/25 10:33:52;;;;;;;14.40;3.50;;;7.10;99.90;;;5.51;100.00;100645.81;4818341;29;20126;-73
2022/11/25 10:36:38;;;;;;;12.77;3.40;;;7.10;99.90;;;5.53;100.00;100648.34;4818366;29;20179;-74
2022/11/25 10:39:17;;;;;;;15.23;4.07;;;7.10;99.90;;;5.59;100.00;100648.47;4818567;29;20042;-73
2022/11/25 10:42:05;;;;;;;15.77;4.28;;;7.20;99.90;;;5.65;100.00;100651.47;4818877;29;20022;-74
2022/11/25 10:44:37;;;;;;;14.13;3.53;;;7.20;99.90;;;5.68;100.00;100653.78;4818640;29;20038;-74